Time;durP1;ratioP1;P1;durP2;ratioP2;P2;SDS_P1;SDS_P2;PMS_P1;PMS_P2;Temp;Humidity;BMP_temperature;BMP_pressure;BME280_temperature;BME280_humidity;BME280_pressure;Samples;Min_cycle;Max_cycle;Signal;HPM_P1;HPM_P2
2021/01/04 00:02:45;;;;;;;16.30;8.63;;;;;;;;;;5034094;28;20056;-74
2021/01/04 00:05:17;;;;;;;20.88;9.40;;;;;;;;;;5061425;28;20025;-75
2021/01/04 00:07:43;;;;;;;15.60;9.20;;;;;;;;;;5034226;28;20023;-76
2021/01/04 00:10:27;;;;;;;14.75;9.73;;;;;;;;;;5032782;28;20022;-72
2021/01/04 00:12:57;;;;;;;14.68;8.75;;;;;;;;;;5034117;28;20031;-70
2021/01/04 00:15:26;;;;;;;18.85;9.05;;;;;;;;;;5033910;28;20461;-74
2021/01/04 00:17:55;;;;;;;19.27;9.77;;;;;;;;;;5032484;28;20026;-75
2021/01/04 00:20:27;;;;;;;17.30;9.65;;;;;;;;;;5033894;28;20578;-77
2021/01/04 00:23:20;;;;;;;17.05;9.68;;;;;;;;;;5033777;28;20022;-70
2021/01/04 00:25:51;;;;;;;17.75;9.85;;;;;;;;;;5033573;28;20052;-76
2021/01/04 00:28:21;;;;;;;16.88;9.68;;;;;;;;;;5033434;28;20029;-72
2021/01/04 00:30:47;;;;;;;16.30;9.25;;;;;;;;;;5032129;28;20060;-72
2021/01/04 00:33:29;;;;;;;16.92;9.63;;;;;;;;;;5032073;28;20053;-70
2021/01/04 00:36:00;;;;;;;16.48;9.02;;;;;;;;;;5033709;28;20053;-70
2021/01/04 00:38:38;;;;;;;17.08;9.23;;;;;;;;;;5032741;28;20476;-70
2021/01/04 00:41:09;;;;;;;17.77;9.63;;;;;;;;;;5034249;28;20032;-75
2021/01/04 00:43:46;;;;;;;14.13;9.40;;;;;;;;;;5033622;28;20032;-75
2021/01/04 00:46:13;;;;;;;16.70;9.80;;;;;;;;;;5033631;28;20026;-70
2021/01/04 00:48:43;;;;;;;13.43;9.75;;;;;;;;;;5033270;28;20018;-70
2021/01/04 00:51:18;;;;;;;17.05;10.02;;;;;;;;;;5032139;28;20028;-70
2021/01/04 00:53:49;;;;;;;12.98;9.52;;;;;;;;;;5033269;28;20014;-70
2021/01/04 00:56:18;;;;;;;14.68;9.52;;;;;;;;;;5033183;28;20072;-70
2021/01/04 00:58:44;;;;;;;14.52;9.15;;;;;;;;;;5033243;28;20056;-73
2021/01/04 01:01:13;;;;;;;15.98;9.85;;;;;;;;;;5033355;28;20421;-70
2021/01/04 01:03:39;;;;;;;15.45;9.10;;;;;;;;;;5033161;28;20049;-72
2021/01/04 01:06:23;;;;;;;14.55;9.70;;;;;;;;;;5033061;28;20040;-75
2021/01/04 01:08:54;;;;;;;13.20;9.95;;;;;;;;;;5033000;28;20021;-70
2021/01/04 01:11:25;;;;;;;14.52;9.70;;;;;;;;;;5032784;28;20480;-70
2021/01/04 01:13:57;;;;;;;14.85;10.13;;;;;;;;;;5032658;28;20044;-77
2021/01/04 01:16:41;;;;;;;14.20;10.02;;;;;;;;;;5032849;28;20033;-70
2021/01/04 01:19:07;;;;;;;14.20;9.55;;;;;;;;;;5032939;28;20029;-70
2021/01/04 01:21:35;;;;;;;13.57;9.38;;;;;;;;;;5032822;28;20032;-73
2021/01/04 01:24:01;;;;;;;12.40;9.43;;;;;;;;;;5032698;28;20024;-76
2021/01/04 01:26:46;;;;;;;13.63;9.02;;;;;;;;;;5032680;28;20030;-71
2021/01/04 01:29:30;;;;;;;13.35;9.40;;;;;;;;;;5031306;28;20390;-70
2021/01/04 01:32:06;;;;;;;14.98;10.02;;;;;;;;;;5032561;28;20017;-74
2021/01/04 01:34:45;;;;;;;13.75;9.57;;;;;;;;;;5032515;28;20100;-71
2021/01/04 01:37:11;;;;;;;14.52;9.68;;;;;;;;;;5030839;28;20068;-72
2021/01/04 01:39:44;;;;;;;14.48;9.75;;;;;;;;;;5030984;28;20396;-72
2021/01/04 01:42:19;;;;;;;14.73;9.82;;;;;;;;;;5033165;28;20174;-76
2021/01/04 01:45:05;;;;;;;14.15;9.60;;;;;;;;;;5048452;28;20155;-73
2021/01/04 01:47:36;;;;;;;14.70;9.63;;;;;;;;;;5048292;28;20029;-71
2021/01/04 01:50:12;;;;;;;18.40;9.00;;;;;;;;;;5050898;28;20154;-71
2021/01/04 01:52:53;;;;;;;13.23;9.63;;;;;;;;;;5052209;28;20024;-72
2021/01/04 01:55:31;;;;;;;14.02;9.23;;;;;;;;;;5050936;28;20070;-71
2021/01/04 01:58:16;;;;;;;13.45;8.98;;;;;;;;;;5052130;28;20035;-75
2021/01/04 02:01:01;;;;;;;16.15;9.40;;;;;;;;;;5039872;28;20029;-74
2021/01/04 02:03:31;;;;;;;13.85;8.80;;;;;;;;;;5051806;28;20029;-77
2021/01/04 02:06:29;;;;;;;19.05;9.32;;;;;;;;;;5037446;28;20030;-72
2021/01/04 02:09:01;;;;;;;15.40;8.70;;;;;;;;;;5030474;28;20544;-71
2021/01/04 02:11:40;;;;;;;13.73;8.93;;;;;;;;;;5032277;28;20079;-77
2021/01/04 02:14:17;;;;;;;13.32;9.35;;;;;;;;;;5031904;28;20025;-75
2021/01/04 02:16:52;;;;;;;12.60;8.85;;;;;;;;;;5034341;28;20063;-77
2021/01/04 02:19:24;;;;;;;13.93;8.80;;;;;;;;;;5051680;28;20025;-76
2021/01/04 02:22:22;;;;;;;13.48;9.40;;;;;;;;;;5051582;28;20032;-77
2021/01/04 02:24:48;;;;;;;15.48;9.32;;;;;;;;;;5039444;28;20450;-73
2021/01/04 02:27:18;;;;;;;13.57;9.50;;;;;;;;;;5051518;28;20044;-76
2021/01/04 02:29:44;;;;;;;11.95;8.38;;;;;;;;;;5050221;28;20021;-71
2021/01/04 02:32:10;;;;;;;12.55;9.07;;;;;;;;;;5040050;28;20056;-71
2021/01/04 02:34:42;;;;;;;12.55;8.20;;;;;;;;;;5031477;28;20026;-77
2021/01/04 02:37:08;;;;;;;10.95;7.80;;;;;;;;;;5082714;28;20496;-70
2021/01/04 02:39:40;;;;;;;12.18;7.95;;;;;;;;;;5051538;28;20560;-71
2021/01/04 02:42:27;;;;;;;12.30;8.90;;;;;;;;;;5051452;28;20436;-71
2021/01/04 02:44:54;;;;;;;11.88;8.13;;;;;;;;;;5051108;28;20096;-71
2021/01/04 02:47:20;;;;;;;12.38;8.38;;;;;;;;;;5051086;28;20032;-75
2021/01/04 02:49:46;;;;;;;13.05;8.50;;;;;;;;;;5051192;28;20207;-70
2021/01/04 02:52:15;;;;;;;11.32;8.18;;;;;;;;;;5052989;28;20059;-70
2021/01/04 02:54:48;;;;;;;11.93;8.43;;;;;;;;;;5039192;28;20099;-69
2021/01/04 02:57:24;;;;;;;12.50;8.10;;;;;;;;;;5033810;28;20033;-68
2021/01/04 02:59:52;;;;;;;14.10;8.60;;;;;;;;;;5035406;28;20493;-68
2021/01/04 03:02:34;;;;;;;12.27;7.82;;;;;;;;;;5035137;28;20424;-68
2021/01/04 03:05:00;;;;;;;11.45;7.97;;;;;;;;;;5034075;28;20025;-68
2021/01/04 03:07:30;;;;;;;11.23;8.10;;;;;;;;;;5033790;28;20022;-69
2021/01/04 03:09:57;;;;;;;12.30;8.27;;;;;;;;;;5033678;28;20025;-68
2021/01/04 03:12:26;;;;;;;12.52;8.57;;;;;;;;;;5034868;28;20013;-75
2021/01/04 03:15:11;;;;;;;14.57;8.85;;;;;;;;;;5035200;28;20030;-74
2021/01/04 03:17:56;;;;;;;12.05;8.52;;;;;;;;;;5035387;28;20041;-74
2021/01/04 03:20:24;;;;;;;11.13;8.38;;;;;;;;;;5033545;28;20026;-68
2021/01/04 03:22:51;;;;;;;12.38;8.05;;;;;;;;;;5034811;28;20017;-70
2021/01/04 03:25:39;;;;;;;14.10;7.88;;;;;;;;;;5033576;28;20362;-71
2021/01/04 03:28:06;;;;;;;12.93;8.75;;;;;;;;;;5034904;28;20026;-68
2021/01/04 03:30:32;;;;;;;11.55;8.18;;;;;;;;;;5035075;28;20041;-68
2021/01/04 03:32:58;;;;;;;14.75;8.90;;;;;;;;;;5034820;28;20076;-68
2021/01/04 03:35:25;;;;;;;13.98;9.00;;;;;;;;;;5034666;28;20563;-75
2021/01/04 03:37:51;;;;;;;12.50;9.00;;;;;;;;;;5034630;28;20032;-71
2021/01/04 03:40:18;;;;;;;13.18;8.60;;;;;;;;;;5034843;28;20364;-70
2021/01/04 03:42:44;;;;;;;13.15;9.18;;;;;;;;;;5033361;28;20032;-71
2021/01/04 03:45:10;;;;;;;11.68;8.27;;;;;;;;;;5034423;28;20018;-71
2021/01/04 03:47:36;;;;;;;13.88;8.48;;;;;;;;;;5032864;28;20476;-70
2021/01/04 03:50:07;;;;;;;12.75;9.30;;;;;;;;;;5033167;28;20033;-70
2021/01/04 03:52:33;;;;;;;13.07;9.40;;;;;;;;;;5034377;28;20033;-70
2021/01/04 03:54:59;;;;;;;16.92;9.48;;;;;;;;;;5034277;28;20040;-73
2021/01/04 03:57:25;;;;;;;12.63;9.10;;;;;;;;;;5033558;28;20175;-69
2021/01/04 03:59:51;;;;;;;12.68;9.23;;;;;;;;;;5034510;28;20396;-69
2021/01/04 04:02:19;;;;;;;13.68;9.75;;;;;;;;;;5035668;28;20465;-71
2021/01/04 04:04:45;;;;;;;14.77;9.05;;;;;;;;;;5040937;28;20029;-72
2021/01/04 04:07:11;;;;;;;12.85;9.43;;;;;;;;;;5054198;28;20083;-70
2021/01/04 04:09:37;;;;;;;13.00;9.40;;;;;;;;;;5052881;28;20035;-74
2021/01/04 04:12:03;;;;;;;14.13;9.30;;;;;;;;;;5054183;28;20483;-72
2021/01/04 04:14:29;;;;;;;16.10;9.10;;;;;;;;;;5054057;28;20400;-72
2021/01/04 04:16:56;;;;;;;16.25;10.00;;;;;;;;;;5053899;28;20033;-73
2021/01/04 04:19:22;;;;;;;13.48;10.05;;;;;;;;;;5054041;28;20025;-73
2021/01/04 04:21:52;;;;;;;16.02;9.63;;;;;;;;;;5053954;28;20025;-72
2021/01/04 04:24:18;;;;;;;12.43;8.90;;;;;;;;;;5053922;28;20430;-69
2021/01/04 04:26:44;;;;;;;14.13;9.55;;;;;;;;;;5053967;28;20074;-70
2021/01/04 04:29:10;;;;;;;19.65;10.60;;;;;;;;;;5052492;28;20025;-70
2021/01/04 04:31:43;;;;;;;14.07;9.07;;;;;;;;;;5053626;28;20036;-76
2021/01/04 04:34:09;;;;;;;13.80;9.18;;;;;;;;;;5053734;28;20052;-71
2021/01/04 04:36:36;;;;;;;16.23;10.27;;;;;;;;;;5053455;28;20500;-73
2021/01/04 04:39:02;;;;;;;14.55;9.15;;;;;;;;;;5052376;28;20025;-70
2021/01/04 04:41:34;;;;;;;14.05;9.35;;;;;;;;;;5053525;28;20017;-70
2021/01/04 04:44:23;;;;;;;14.32;9.98;;;;;;;;;;5053584;28;20017;-70
2021/01/04 04:47:07;;;;;;;16.95;11.35;;;;;;;;;;5043069;28;20388;-70
2021/01/04 04:49:47;;;;;;;13.60;9.88;;;;;;;;;;5053432;28;20031;-75
2021/01/04 04:52:23;;;;;;;16.17;9.13;;;;;;;;;;5052015;28;20056;-75
2021/01/04 04:55:00;;;;;;;14.18;9.60;;;;;;;;;;5053334;28;20031;-70
2021/01/04 04:57:26;;;;;;;16.40;10.32;;;;;;;;;;5053099;28;20044;-76
2021/01/04 05:00:22;;;;;;;15.05;9.73;;;;;;;;;;5053570;28;20017;-76
2021/01/04 05:02:51;;;;;;;14.63;9.25;;;;;;;;;;5053317;28;20025;-73
2021/01/04 05:05:20;;;;;;;15.15;9.95;;;;;;;;;;5053118;28;20021;-70
2021/01/04 05:07:49;;;;;;;14.90;10.10;;;;;;;;;;5053012;28;20371;-70
2021/01/04 05:10:41;;;;;;;14.63;10.07;;;;;;;;;;5052970;28;20032;-72
2021/01/04 05:13:21;;;;;;;14.47;9.30;;;;;;;;;;5051614;28;20052;-70
2021/01/04 05:15:56;;;;;;;15.63;10.40;;;;;;;;;;5050435;28;20325;-75
2021/01/04 05:18:25;;;;;;;15.32;9.90;;;;;;;;;;5052760;28;20028;-76
2021/01/04 05:20:54;;;;;;;16.48;10.10;;;;;;;;;;5052895;28;20021;-70
2021/01/04 05:23:36;;;;;;;14.63;9.60;;;;;;;;;;5052744;28;20017;-70
2021/01/04 05:26:02;;;;;;;14.68;10.00;;;;;;;;;;5052679;28;20048;-74
2021/01/04 05:28:48;;;;;;;12.77;9.02;;;;;;;;;;5051252;28;20384;-75
2021/01/04 05:31:33;;;;;;;13.95;9.68;;;;;;;;;;5052456;28;20090;-74
2021/01/04 05:33:59;;;;;;;13.00;8.98;;;;;;;;;;5051234;28;20039;-76
2021/01/04 05:36:44;;;;;;;13.88;10.02;;;;;;;;;;5052381;28;20077;-71
2021/01/04 05:39:24;;;;;;;22.95;10.35;;;;;;;;;;5052571;28;20051;-70
2021/01/04 05:41:59;;;;;;;14.32;9.80;;;;;;;;;;5052344;28;20385;-70
2021/01/04 05:44:35;;;;;;;13.52;9.13;;;;;;;;;;5050928;28;20028;-70
2021/01/04 05:47:21;;;;;;;14.15;9.85;;;;;;;;;;5052540;28;20017;-72
2021/01/04 05:49:56;;;;;;;13.52;9.55;;;;;;;;;;5052224;28;20029;-76
2021/01/04 05:52:22;;;;;;;14.88;10.15;;;;;;;;;;5052154;28;20017;-73
2021/01/04 05:54:48;;;;;;;16.73;10.38;;;;;;;;;;5052229;28;20056;-70
2021/01/04 05:57:15;;;;;;;16.92;10.73;;;;;;;;;;5052097;28;20033;-70
2021/01/04 05:59:47;;;;;;;15.25;10.20;;;;;;;;;;5048571;28;20052;-71
2021/01/04 06:02:21;;;;;;;13.85;9.85;;;;;;;;;;5051894;28;20029;-71
2021/01/04 06:04:47;;;;;;;17.23;9.82;;;;;;;;;;5049065;28;20025;-71
2021/01/04 06:07:13;;;;;;;14.43;9.57;;;;;;;;;;5051938;28;20021;-74
2021/01/04 06:09:39;;;;;;;14.65;9.98;;;;;;;;;;5051898;28;20393;-70
2021/01/04 06:12:17;;;;;;;14.40;10.20;;;;;;;;;;5050492;28;20049;-70
2021/01/04 06:14:43;;;;;;;15.85;10.48;;;;;;;;;;5051870;28;20052;-70
2021/01/04 06:17:23;;;;;;;13.02;8.98;;;;;;;;;;5051737;28;20033;-71
2021/01/04 06:19:51;;;;;;;14.18;10.00;;;;;;;;;;5050517;28;20154;-74
2021/01/04 06:22:17;;;;;;;16.15;10.13;;;;;;;;;;5051713;28;20032;-70
2021/01/04 06:24:45;;;;;;;13.40;10.20;;;;;;;;;;5051663;28;20017;-76
2021/01/04 06:27:12;;;;;;;14.35;10.00;;;;;;;;;;5051014;28;20601;-71
2021/01/04 06:29:40;;;;;;;16.67;10.63;;;;;;;;;;5051427;28;20419;-73
2021/01/04 06:32:07;;;;;;;15.73;10.40;;;;;;;;;;5051483;28;20091;-71
2021/01/04 06:34:36;;;;;;;15.57;10.30;;;;;;;;;;5051480;28;20047;-76
2021/01/04 06:37:11;;;;;;;13.60;10.27;;;;;;;;;;5051223;28;20061;-72
2021/01/04 06:39:37;;;;;;;14.35;9.55;;;;;;;;;;5051528;28;20027;-70
2021/01/04 06:42:08;;;;;;;13.15;9.30;;;;;;;;;;5050196;28;20029;-76
2021/01/04 06:44:35;;;;;;;15.38;11.10;;;;;;;;;;5051543;28;20021;-71
2021/01/04 06:47:06;;;;;;;15.65;10.20;;;;;;;;;;5051471;28;20035;-73
2021/01/04 06:49:37;;;;;;;15.90;11.10;;;;;;;;;;5051532;28;20542;-72
2021/01/04 06:52:21;;;;;;;14.23;9.75;;;;;;;;;;5051380;28;20083;-75
2021/01/04 06:55:06;;;;;;;16.33;11.40;;;;;;;;;;5051373;28;20052;-73
2021/01/04 06:57:32;;;;;;;15.20;10.45;;;;;;;;;;5051367;28;20090;-71
2021/01/04 07:00:01;;;;;;;15.48;11.30;;;;;;;;;;5050063;28;20021;-71
2021/01/04 07:02:41;;;;;;;15.57;10.88;;;;;;;;;;5051387;28;20033;-70
2021/01/04 07:05:26;;;;;;;12.27;8.95;;;;;;;;;;5051287;28;20052;-73
2021/01/04 07:08:07;;;;;;;14.48;9.82;;;;;;;;;;5051008;28;20032;-70
2021/01/04 07:10:52;;;;;;;14.60;10.25;;;;;;;;;;5051612;28;20029;-75
2021/01/04 07:13:24;;;;;;;13.40;8.88;;;;;;;;;;5051212;28;20416;-70
2021/01/04 07:16:00;;;;;;;15.40;10.07;;;;;;;;;;5051041;28;20029;-73
2021/01/04 07:18:38;;;;;;;13.70;9.20;;;;;;;;;;5051063;28;20028;-70
2021/01/04 07:21:20;;;;;;;13.02;8.73;;;;;;;;;;5049728;28;20222;-77
2021/01/04 07:23:46;;;;;;;16.77;9.60;;;;;;;;;;5049594;28;20108;-72
2021/01/04 07:26:31;;;;;;;13.07;8.85;;;;;;;;;;5050828;28;20020;-69
2021/01/04 07:29:15;;;;;;;11.88;8.10;;;;;;;;;;5049598;28;20036;-70
2021/01/04 07:32:04;;;;;;;11.85;7.97;;;;;;;;;;5049605;28;20476;-69
2021/01/04 07:34:35;;;;;;;14.45;9.70;;;;;;;;;;5050765;28;20025;-73
2021/01/04 07:37:13;;;;;;;13.00;8.63;;;;;;;;;;5050698;28;20103;-71
2021/01/04 07:39:45;;;;;;;16.08;10.25;;;;;;;;;;5053217;28;20024;-70
2021/01/04 07:42:22;;;;;;;13.75;9.43;;;;;;;;;;5054734;28;20495;-70
2021/01/04 07:45:07;;;;;;;13.90;9.02;;;;;;;;;;5054609;28;20501;-69
2021/01/04 07:47:39;;;;;;;13.27;9.38;;;;;;;;;;5054637;28;20059;-70
2021/01/04 07:50:20;;;;;;;12.83;8.80;;;;;;;;;;5053328;28;20510;-73
2021/01/04 07:53:05;;;;;;;14.20;8.35;;;;;;;;;;5053376;28;20021;-74
2021/01/04 07:55:37;;;;;;;13.13;8.73;;;;;;;;;;5054363;28;20104;-71
2021/01/04 07:58:21;;;;;;;13.23;8.43;;;;;;;;;;5054237;28;20061;-70
2021/01/04 08:01:04;;;;;;;15.10;8.80;;;;;;;;;;5054409;28;20044;-70
2021/01/04 08:03:45;;;;;;;13.55;8.63;;;;;;;;;;5053068;28;20109;-75
2021/01/04 08:06:11;;;;;;;18.02;8.68;;;;;;;;;;5053905;28;20163;-71
2021/01/04 08:08:41;;;;;;;14.73;9.52;;;;;;;;;;5054054;28;20529;-72
2021/01/04 08:11:10;;;;;;;14.50;9.30;;;;;;;;;;5054250;28;20063;-72
2021/01/04 08:14:00;;;;;;;13.63;8.30;;;;;;;;;;5052860;28;20025;-70
2021/01/04 08:16:26;;;;;;;16.70;9.05;;;;;;;;;;5054088;28;20479;-70
2021/01/04 08:18:55;;;;;;;15.02;8.27;;;;;;;;;;5054001;28;20506;-70
2021/01/04 08:21:24;;;;;;;14.25;8.50;;;;;;;;;;5053716;28;20017;-71
2021/01/04 08:23:53;;;;;;;13.82;8.55;;;;;;;;;;5053733;28;20021;-69
2021/01/04 08:26:25;;;;;;;13.85;9.05;;;;;;;;;;5053677;28;20016;-70
2021/01/04 08:29:10;;;;;;;13.70;7.90;;;;;;;;;;5053793;28;20025;-71
2021/01/04 08:31:40;;;;;;;14.02;8.73;;;;;;;;;;5053859;28;20368;-70
2021/01/04 08:34:08;;;;;;;13.20;8.32;;;;;;;;;;5052506;28;20037;-74
2021/01/04 08:37:13;;;;;;;11.85;7.97;;;;;;;;;;5053425;28;20052;-72
2021/01/04 08:39:50;;;;;;;14.85;8.52;;;;;;;;;;5030998;28;20574;-69
2021/01/04 08:42:17;;;;;;;13.25;8.70;;;;;;;;;;5031134;28;20033;-71
2021/01/04 08:44:53;;;;;;;13.02;8.35;;;;;;;;;;5043610;28;20033;-73
2021/01/04 08:47:26;;;;;;;13.82;7.93;;;;;;;;;;5053548;28;20510;-72
2021/01/04 08:50:00;;;;;;;14.98;9.30;;;;;;;;;;5053331;28;20025;-74
2021/01/04 08:52:26;;;;;;;13.13;8.70;;;;;;;;;;5052160;28;20025;-75
2021/01/04 08:54:59;;;;;;;12.57;8.15;;;;;;;;;;5053386;28;20021;-76
2021/01/04 08:57:25;;;;;;;;;;;;;;;;;;5053739;28;20064;-69
2021/01/04 08:59:56;;;;;;;13.10;7.90;;;;;;;;;;5052022;28;20383;-75
2021/01/04 09:02:42;;;;;;;11.85;7.45;;;;;;;;;;5053081;28;20029;-69
2021/01/04 09:05:13;;;;;;;13.55;7.43;;;;;;;;;;5053038;28;20175;-70
2021/01/04 09:07:48;;;;;;;14.38;9.07;;;;;;;;;;5053068;28;20036;-69
2021/01/04 09:10:33;;;;;;;12.73;7.90;;;;;;;;;;5052980;28;20028;-75
2021/01/04 09:13:10;;;;;;;12.48;8.55;;;;;;;;;;5053028;28;20025;-70
2021/01/04 09:15:37;;;;;;;17.00;8.88;;;;;;;;;;5052811;28;20103;-70
2021/01/04 09:18:03;;;;;;;11.43;7.60;;;;;;;;;;5052878;28;20534;-70
2021/01/04 09:20:38;;;;;;;12.93;8.20;;;;;;;;;;5051677;28;20033;-76
2021/01/04 09:23:06;;;;;;;12.43;7.72;;;;;;;;;;5052941;28;20025;-71
2021/01/04 09:25:45;;;;;;;13.38;8.52;;;;;;;;;;5052843;28;20067;-70
2021/01/04 09:28:11;;;;;;;11.57;8.00;;;;;;;;;;5052627;28;20063;-72
2021/01/04 09:30:37;;;;;;;11.95;7.40;;;;;;;;;;5052604;28;20025;-69
2021/01/04 09:33:09;;;;;;;14.00;8.75;;;;;;;;;;5052679;28;20029;-77
2021/01/04 09:35:35;;;;;;;12.25;8.25;;;;;;;;;;5052217;28;20028;-76
2021/01/04 09:38:06;;;;;;;12.57;7.32;;;;;;;;;;5052595;28;20020;-70
2021/01/04 09:40:32;;;;;;;14.95;8.73;;;;;;;;;;5052625;28;20025;-72
2021/01/04 09:43:06;;;;;;;13.43;9.05;;;;;;;;;;5052476;28;20032;-70
2021/01/04 09:45:32;;;;;;;13.52;9.13;;;;;;;;;;5052219;28;20392;-74
2021/01/04 09:48:03;;;;;;;15.10;8.13;;;;;;;;;;5052197;28;20496;-69
2021/01/04 09:50:59;;;;;;;12.57;8.18;;;;;;;;;;5052302;28;20392;-70
2021/01/04 09:53:26;;;;;;;13.73;8.60;;;;;;;;;;5046590;28;20069;-72
2021/01/04 09:55:57;;;;;;;11.70;7.72;;;;;;;;;;5052150;28;20033;-69
2021/01/04 09:58:23;;;;;;;11.93;7.53;;;;;;;;;;5052275;28;20037;-70
2021/01/04 10:00:49;;;;;;;9.50;7.07;;;;;;;;;;5048965;28;20028;-69
2021/01/04 10:03:22;;;;;;;13.88;8.43;;;;;;;;;;5051661;28;20029;-70
2021/01/04 10:05:50;;;;;;;10.52;7.55;;;;;;;;;;5051990;28;20112;-76
2021/01/04 10:08:27;;;;;;;12.60;7.80;;;;;;;;;;5050650;28;20017;-70
2021/01/04 10:11:02;;;;;;;11.65;7.45;;;;;;;;;;5051685;28;20025;-71
2021/01/04 10:13:30;;;;;;;12.55;7.63;;;;;;;;;;5045013;28;20013;-69
2021/01/04 10:15:57;;;;;;;12.63;8.27;;;;;;;;;;5035981;28;20041;-71
2021/01/04 10:18:53;;;;;;;9.88;7.15;;;;;;;;;;5046128;28;20435;-69
2021/01/04 10:21:24;;;;;;;11.13;6.70;;;;;;;;;;5026919;28;20034;-70
2021/01/04 10:23:54;;;;;;;12.77;7.00;;;;;;;;;;5043032;28;20025;-70
2021/01/04 10:26:20;;;;;;;13.13;6.65;;;;;;;;;;5051418;28;20503;-71
2021/01/04 10:28:46;;;;;;;10.10;6.07;;;;;;;;;;5050290;28;20531;-70
2021/01/04 10:31:15;;;;;;;10.55;6.15;;;;;;;;;;5050246;28;20034;-70
2021/01/04 10:33:42;;;;;;;14.82;6.95;;;;;;;;;;5050190;28;20028;-73
2021/01/04 10:36:14;;;;;;;15.00;7.60;;;;;;;;;;5038925;28;20053;-73
2021/01/04 10:38:49;;;;;;;15.03;7.73;;;;;;;;;;5032403;28;20021;-70
2021/01/04 10:41:16;;;;;;;11.98;6.97;;;;;;;;;;5031612;28;20026;-70
2021/01/04 10:43:43;;;;;;;9.82;6.05;;;;;;;;;;5031542;28;20083;-69
2021/01/04 10:46:27;;;;;;;11.30;6.85;;;;;;;;;;5031387;28;20060;-74
2021/01/04 10:48:58;;;;;;;10.63;7.05;;;;;;;;;;5032768;28;20017;-72
2021/01/04 10:51:25;;;;;;;12.02;6.75;;;;;;;;;;5032834;28;20029;-72
2021/01/04 10:53:51;;;;;;;12.20;6.50;;;;;;;;;;5032737;28;20404;-72
2021/01/04 10:56:20;;;;;;;13.18;7.53;;;;;;;;;;5031215;28;20038;-75
2021/01/04 10:59:01;;;;;;;9.93;6.38;;;;;;;;;;5032661;28;20024;-75
2021/01/04 11:01:31;;;;;;;10.65;6.57;;;;;;;;;;5032571;28;20444;-70
2021/01/04 11:03:59;;;;;;;12.13;7.13;;;;;;;;;;5032452;28;20021;-76
2021/01/04 11:06:28;;;;;;;10.73;7.30;;;;;;;;;;5032332;28;20033;-69
2021/01/04 11:08:54;;;;;;;10.90;7.10;;;;;;;;;;5032407;28;20063;-70
2021/01/04 11:11:26;;;;;;;9.70;6.97;;;;;;;;;;5033899;28;20481;-71
2021/01/04 11:13:52;;;;;;;10.85;6.65;;;;;;;;;;5053891;28;20033;-70
2021/01/04 11:16:19;;;;;;;11.77;6.63;;;;;;;;;;5056262;28;20391;-68
2021/01/04 11:18:50;;;;;;;9.85;6.53;;;;;;;;;;5056456;28;20534;-69
2021/01/04 11:21:17;;;;;;;9.23;6.85;;;;;;;;;;5056344;28;20075;-74
2021/01/04 11:23:43;;;;;;;12.50;7.15;;;;;;;;;;5056324;28;20032;-75
2021/01/04 11:26:09;;;;;;;9.95;5.95;;;;;;;;;;5055790;28;20476;-75
2021/01/04 11:28:36;;;;;;;9.73;6.38;;;;;;;;;;5054607;28;20029;-74
2021/01/04 11:31:02;;;;;;;9.10;6.43;;;;;;;;;;5056248;28;20029;-75
2021/01/04 11:33:28;;;;;;;10.10;7.18;;;;;;;;;;5053014;28;20041;-73
2021/01/04 11:35:55;;;;;;;10.73;6.75;;;;;;;;;;5042170;28;20078;-75
2021/01/04 11:38:21;;;;;;;11.07;6.63;;;;;;;;;;5054475;28;20037;-77
2021/01/04 11:40:47;;;;;;;11.32;6.53;;;;;;;;;;5042189;28;20029;-76
2021/01/04 11:43:14;;;;;;;9.18;6.38;;;;;;;;;;5036011;28;20424;-77
2021/01/04 11:45:40;;;;;;;10.45;6.80;;;;;;;;;;5035933;28;20488;-76
2021/01/04 11:48:07;;;;;;;12.15;6.47;;;;;;;;;;5035821;28;20021;-69
2021/01/04 11:50:33;;;;;;;10.32;6.80;;;;;;;;;;5035971;28;20030;-73
2021/01/04 11:52:59;;;;;;;10.88;6.85;;;;;;;;;;5048262;28;20541;-72
2021/01/04 11:55:25;;;;;;;10.98;6.45;;;;;;;;;;5054305;28;20071;-72
2021/01/04 11:57:52;;;;;;;17.98;7.00;;;;;;;;;;5040147;28;20076;-70
2021/01/04 12:00:19;;;;;;;12.43;7.03;;;;;;;;;;5035563;28;20064;-73
2021/01/04 12:02:45;;;;;;;8.90;6.20;;;;;;;;;;5035571;28;20021;-72
2021/01/04 12:05:13;;;;;;;12.02;7.47;;;;;;;;;;5035307;28;20075;-70
2021/01/04 12:07:40;;;;;;;11.13;7.03;;;;;;;;;;5034268;28;20017;-70
2021/01/04 12:10:06;;;;;;;9.98;6.28;;;;;;;;;;5034050;28;20032;-71
2021/01/04 12:12:32;;;;;;;9.15;6.53;;;;;;;;;;5033787;28;20584;-71
2021/01/04 12:14:58;;;;;;;11.95;7.18;;;;;;;;;;5034246;28;20026;-69
2021/01/04 12:17:24;;;;;;;11.15;7.22;;;;;;;;;;5033904;28;20041;-71
2021/01/04 12:19:50;;;;;;;11.63;7.07;;;;;;;;;;5034054;28;20064;-69
2021/01/04 12:22:17;;;;;;;9.43;6.53;;;;;;;;;;5033673;28;20020;-71
2021/01/04 12:24:47;;;;;;;10.40;7.35;;;;;;;;;;5033258;28;20026;-74
2021/01/04 12:27:13;;;;;;;9.90;7.00;;;;;;;;;;5033722;28;20033;-69
2021/01/04 12:29:46;;;;;;;14.27;7.15;;;;;;;;;;5033883;28;20025;-72
2021/01/04 12:32:13;;;;;;;10.00;6.57;;;;;;;;;;5032193;28;20126;-69
2021/01/04 12:34:40;;;;;;;10.57;7.03;;;;;;;;;;5032292;28;20035;-71
2021/01/04 12:37:06;;;;;;;9.00;6.38;;;;;;;;;;5033313;28;20049;-72
2021/01/04 12:39:32;;;;;;;8.95;6.50;;;;;;;;;;5032165;28;20045;-70
2021/01/04 12:41:58;;;;;;;9.73;6.70;;;;;;;;;;5032399;28;20155;-71
2021/01/04 12:44:24;;;;;;;10.02;6.35;;;;;;;;;;5033378;28;20026;-71
2021/01/04 12:46:51;;;;;;;10.45;6.40;;;;;;;;;;5033248;28;20025;-71
2021/01/04 12:49:18;;;;;;;8.40;6.07;;;;;;;;;;5033292;28;20021;-68
2021/01/04 12:51:45;;;;;;;9.63;5.95;;;;;;;;;;5032185;28;20044;-70
2021/01/04 12:54:13;;;;;;;9.38;6.43;;;;;;;;;;5031929;28;20056;-70
2021/01/04 12:56:43;;;;;;;10.02;6.65;;;;;;;;;;5032985;28;20084;-70
2021/01/04 12:59:09;;;;;;;10.55;6.30;;;;;;;;;;5032122;28;20263;-72
2021/01/04 13:01:38;;;;;;;11.07;6.63;;;;;;;;;;5033409;28;20025;-70
2021/01/04 13:04:04;;;;;;;10.43;6.35;;;;;;;;;;5031850;28;20018;-70
2021/01/04 13:06:33;;;;;;;20.25;6.60;;;;;;;;;;5031717;28;20029;-69
2021/01/04 13:08:59;;;;;;;9.88;6.30;;;;;;;;;;5033062;28;20404;-69
2021/01/04 13:11:25;;;;;;;9.45;6.63;;;;;;;;;;5035440;28;20029;-67
2021/01/04 13:13:51;;;;;;;10.45;6.60;;;;;;;;;;5052846;28;20070;-72
2021/01/04 13:16:17;;;;;;;9.80;6.95;;;;;;;;;;5051319;28;20028;-68
2021/01/04 13:18:43;;;;;;;8.90;6.25;;;;;;;;;;5052790;28;20170;-71
2021/01/04 13:21:15;;;;;;;7.75;5.82;;;;;;;;;;5051397;28;20016;-68
2021/01/04 13:23:41;;;;;;;10.65;6.30;;;;;;;;;;5051265;28;20024;-68
2021/01/04 13:26:08;;;;;;;9.07;5.75;;;;;;;;;;5052335;28;20134;-70
2021/01/04 13:28:34;;;;;;;9.13;6.05;;;;;;;;;;5052422;28;20021;-72
2021/01/04 13:31:00;;;;;;;9.85;6.10;;;;;;;;;;5052462;28;20400;-68
2021/01/04 13:33:26;;;;;;;11.02;6.40;;;;;;;;;;5052506;28;20096;-71
2021/01/04 13:35:52;;;;;;;8.77;5.72;;;;;;;;;;5051688;28;20110;-70
2021/01/04 13:38:18;;;;;;;9.98;6.57;;;;;;;;;;5052034;28;20029;-68
2021/01/04 13:40:44;;;;;;;9.32;6.50;;;;;;;;;;5051044;28;20048;-69
2021/01/04 13:43:10;;;;;;;8.93;5.95;;;;;;;;;;5052336;28;20483;-69
2021/01/04 13:45:36;;;;;;;8.82;6.25;;;;;;;;;;5050798;28;20079;-70
2021/01/04 13:48:02;;;;;;;11.07;6.45;;;;;;;;;;5052281;28;20029;-68
2021/01/04 13:50:28;;;;;;;8.10;5.72;;;;;;;;;;5052282;28;20031;-69
2021/01/04 13:52:54;;;;;;;10.77;6.85;;;;;;;;;;5052500;28;20052;-69
2021/01/04 13:55:20;;;;;;;10.73;6.05;;;;;;;;;;5050788;28;20025;-69
2021/01/04 13:57:46;;;;;;;8.57;5.97;;;;;;;;;;5051896;28;20059;-70
2021/01/04 14:00:13;;;;;;;10.88;6.60;;;;;;;;;;5050874;28;20082;-69
2021/01/04 14:02:39;;;;;;;12.93;7.15;;;;;;;;;;5051950;28;20353;-72
2021/01/04 14:05:06;;;;;;;10.82;6.30;;;;;;;;;;5051976;28;20422;-71
2021/01/04 14:07:32;;;;;;;9.82;6.68;;;;;;;;;;5050588;28;20029;-72
2021/01/04 14:09:58;;;;;;;8.95;6.43;;;;;;;;;;5050561;28;20029;-72
2021/01/04 14:12:25;;;;;;;9.77;6.25;;;;;;;;;;5041174;28;20033;-72
2021/01/04 14:14:51;;;;;;;9.13;6.32;;;;;;;;;;5031739;28;20385;-71
2021/01/04 14:17:17;;;;;;;9.10;6.30;;;;;;;;;;5031582;28;20392;-71
2021/01/04 14:19:43;;;;;;;9.43;6.20;;;;;;;;;;5030407;28;20473;-73
2021/01/04 14:22:09;;;;;;;12.68;6.68;;;;;;;;;;5030417;28;20130;-72
2021/01/04 14:24:35;;;;;;;11.57;6.40;;;;;;;;;;5030441;28;20022;-71
2021/01/04 14:27:02;;;;;;;9.30;6.28;;;;;;;;;;5030371;28;20028;-71
2021/01/04 14:29:33;;;;;;;9.88;6.60;;;;;;;;;;5030349;28;20018;-71
2021/01/04 14:32:00;;;;;;;10.32;6.13;;;;;;;;;;5031614;28;20025;-71
2021/01/04 14:34:26;;;;;;;9.23;5.80;;;;;;;;;;5031455;28;20469;-75
2021/01/04 14:36:52;;;;;;;10.27;6.68;;;;;;;;;;5031253;28;20115;-70
2021/01/04 14:39:18;;;;;;;9.73;6.55;;;;;;;;;;5031523;28;20021;-70
2021/01/04 14:41:44;;;;;;;8.73;6.13;;;;;;;;;;5031520;28;20064;-76
2021/01/04 14:44:13;;;;;;;9.43;6.07;;;;;;;;;;5030197;28;20025;-72
2021/01/04 14:46:39;;;;;;;10.10;5.47;;;;;;;;;;5031478;28;20376;-72
2021/01/04 14:49:05;;;;;;;11.82;6.60;;;;;;;;;;5031182;28;20018;-71
2021/01/04 14:51:32;;;;;;;11.65;6.22;;;;;;;;;;5030137;28;20365;-69
2021/01/04 14:53:58;;;;;;;10.77;6.05;;;;;;;;;;5031402;28;20025;-72
2021/01/04 14:56:24;;;;;;;11.77;6.70;;;;;;;;;;5029854;28;20124;-71